sensor_id;sensor_type;location;lat;lon;timestamp;P1;durP1;ratioP1;P2;durP2;ratioP2
8538;SDS011;4307;53.868;11.680;2023-04-01T00:01:23;12.27;;;6.17;;
8538;SDS011;4307;53.868;11.680;2023-04-01T00:03:50;11.07;;;6.50;;
8538;SDS011;4307;53.868;11.680;2023-04-01T00:06:17;9.73;;;5.77;;
8538;SDS011;4307;53.868;11.680;2023-04-01T00:08:44;9.90;;;6.07;;
8538;SDS011;4307;53.868;11.680;2023-04-01T00:11:11;8.97;;;5.40;;
8538;SDS011;4307;53.868;11.680;2023-04-01T00:13:38;6.67;;;4.27;;
8538;SDS011;4307;53.868;11.680;2023-04-01T00:16:06;11.67;;;5.97;;
8538;SDS011;4307;53.868;11.680;2023-04-01T00:18:33;10.10;;;5.63;;
8538;SDS011;4307;53.868;11.680;2023-04-01T00:21:00;6.30;;;4.40;;
8538;SDS011;4307;53.868;11.680;2023-04-01T00:23:27;5.63;;;3.87;;
8538;SDS011;4307;53.868;11.680;2023-04-01T00:25:53;9.73;;;5.70;;
8538;SDS011;4307;53.868;11.680;2023-04-01T00:28:20;9.80;;;4.97;;
8538;SDS011;4307;53.868;11.680;2023-04-01T00:30:47;6.73;;;4.20;;
8538;SDS011;4307;53.868;11.680;2023-04-01T00:33:15;8.77;;;5.63;;
8538;SDS011;4307;53.868;11.680;2023-04-01T00:35:42;9.80;;;5.57;;
8538;SDS011;4307;53.868;11.680;2023-04-01T00:38:09;4.47;;;3.60;;
8538;SDS011;4307;53.868;11.680;2023-04-01T00:40:37;7.93;;;5.27;;
8538;SDS011;4307;53.868;11.680;2023-04-01T00:43:09;6.63;;;4.50;;
8538;SDS011;4307;53.868;11.680;2023-04-01T00:45:38;5.43;;;4.23;;
8538;SDS011;4307;53.868;11.680;2023-04-01T00:48:07;9.57;;;5.70;;
8538;SDS011;4307;53.868;11.680;2023-04-01T00:50:37;6.40;;;4.90;;
8538;SDS011;4307;53.868;11.680;2023-04-01T00:53:06;5.73;;;3.77;;
8538;SDS011;4307;53.868;11.680;2023-04-01T00:55:35;10.33;;;5.67;;
8538;SDS011;4307;53.868;11.680;2023-04-01T00:58:05;8.90;;;5.63;;
8538;SDS011;4307;53.868;11.680;2023-04-01T01:00:37;7.33;;;5.63;;
8538;SDS011;4307;53.868;11.680;2023-04-01T01:03:04;10.37;;;5.83;;
8538;SDS011;4307;53.868;11.680;2023-04-01T01:05:36;6.83;;;4.30;;
8538;SDS011;4307;53.868;11.680;2023-04-01T01:08:18;8.10;;;5.23;;
8538;SDS011;4307;53.868;11.680;2023-04-01T01:10:55;5.60;;;4.20;;
8538;SDS011;4307;53.868;11.680;2023-04-01T01:13:22;7.33;;;4.60;;
8538;SDS011;4307;53.868;11.680;2023-04-01T01:15:58;7.20;;;5.30;;
8538;SDS011;4307;53.868;11.680;2023-04-01T01:18:31;5.07;;;4.03;;
8538;SDS011;4307;53.868;11.680;2023-04-01T01:21:19;6.23;;;4.40;;
8538;SDS011;4307;53.868;11.680;2023-04-01T01:24:09;6.70;;;4.53;;
8538;SDS011;4307;53.868;11.680;2023-04-01T01:26:58;6.70;;;4.87;;
8538;SDS011;4307;53.868;11.680;2023-04-01T01:32:54;6.13;;;5.03;;
8538;SDS011;4307;53.868;11.680;2023-04-01T01:35:29;9.17;;;5.73;;
8538;SDS011;4307;53.868;11.680;2023-04-01T01:38:00;7.57;;;4.53;;
8538;SDS011;4307;53.868;11.680;2023-04-01T01:40:29;5.83;;;4.50;;
8538;SDS011;4307;53.868;11.680;2023-04-01T01:42:59;7.97;;;4.50;;
8538;SDS011;4307;53.868;11.680;2023-04-01T01:45:29;7.40;;;5.33;;
8538;SDS011;4307;53.868;11.680;2023-04-01T01:47:57;4.67;;;3.60;;
8538;SDS011;4307;53.868;11.680;2023-04-01T01:50:26;5.37;;;4.27;;
8538;SDS011;4307;53.868;11.680;2023-04-01T01:53:02;8.43;;;4.83;;
8538;SDS011;4307;53.868;11.680;2023-04-01T01:55:30;5.13;;;4.07;;
8538;SDS011;4307;53.868;11.680;2023-04-01T01:58:00;5.60;;;3.93;;
8538;SDS011;4307;53.868;11.680;2023-04-01T02:00:30;4.97;;;3.63;;
8538;SDS011;4307;53.868;11.680;2023-04-01T02:02:58;6.40;;;3.80;;
8538;SDS011;4307;53.868;11.680;2023-04-01T02:05:26;5.20;;;3.97;;
8538;SDS011;4307;53.868;11.680;2023-04-01T02:07:57;4.37;;;3.10;;
8538;SDS011;4307;53.868;11.680;2023-04-01T02:10:30;2.53;;;2.33;;
8538;SDS011;4307;53.868;11.680;2023-04-01T02:13:00;3.53;;;3.23;;
8538;SDS011;4307;53.868;11.680;2023-04-01T02:15:30;3.30;;;2.60;;
8538;SDS011;4307;53.868;11.680;2023-04-01T02:18:00;2.67;;;2.47;;
8538;SDS011;4307;53.868;11.680;2023-04-01T02:20:30;2.50;;;2.13;;
8538;SDS011;4307;53.868;11.680;2023-04-01T02:22:58;3.90;;;3.17;;
8538;SDS011;4307;53.868;11.680;2023-04-01T02:25:27;2.27;;;2.13;;
8538;SDS011;4307;53.868;11.680;2023-04-01T02:27:57;3.13;;;2.77;;
8538;SDS011;4307;53.868;11.680;2023-04-01T02:30:25;2.00;;;1.90;;
8538;SDS011;4307;53.868;11.680;2023-04-01T02:32:55;4.53;;;3.37;;
8538;SDS011;4307;53.868;11.680;2023-04-01T02:35:22;5.07;;;3.43;;
8538;SDS011;4307;53.868;11.680;2023-04-01T02:37:52;2.90;;;2.33;;
8538;SDS011;4307;53.868;11.680;2023-04-01T02:40:21;2.47;;;2.13;;
8538;SDS011;4307;53.868;11.680;2023-04-01T02:42:48;3.63;;;3.20;;
8538;SDS011;4307;53.868;11.680;2023-04-01T02:45:15;1.83;;;1.73;;
8538;SDS011;4307;53.868;11.680;2023-04-01T02:47:42;3.90;;;2.30;;
8538;SDS011;4307;53.868;11.680;2023-04-01T02:50:09;3.30;;;2.33;;
8538;SDS011;4307;53.868;11.680;2023-04-01T02:52:36;2.97;;;2.60;;
8538;SDS011;4307;53.868;11.680;2023-04-01T02:55:05;2.90;;;2.67;;
8538;SDS011;4307;53.868;11.680;2023-04-01T02:57:32;2.17;;;1.97;;
8538;SDS011;4307;53.868;11.680;2023-04-01T02:59:59;2.73;;;2.20;;
8538;SDS011;4307;53.868;11.680;2023-04-01T03:02:26;4.43;;;2.63;;
8538;SDS011;4307;53.868;11.680;2023-04-01T03:04:52;2.43;;;2.23;;
8538;SDS011;4307;53.868;11.680;2023-04-01T03:07:19;2.50;;;2.17;;
8538;SDS011;4307;53.868;11.680;2023-04-01T03:09:46;4.83;;;2.87;;
8538;SDS011;4307;53.868;11.680;2023-04-01T03:12:14;3.43;;;3.07;;
8538;SDS011;4307;53.868;11.680;2023-04-01T03:14:40;2.07;;;1.97;;
8538;SDS011;4307;53.868;11.680;2023-04-01T03:17:07;2.33;;;2.13;;
8538;SDS011;4307;53.868;11.680;2023-04-01T03:19:33;3.03;;;2.73;;
8538;SDS011;4307;53.868;11.680;2023-04-01T03:22:00;4.43;;;2.70;;
8538;SDS011;4307;53.868;11.680;2023-04-01T03:24:27;2.20;;;2.00;;
8538;SDS011;4307;53.868;11.680;2023-04-01T03:26:53;3.57;;;3.03;;
8538;SDS011;4307;53.868;11.680;2023-04-01T03:29:21;3.13;;;2.07;;
8538;SDS011;4307;53.868;11.680;2023-04-01T03:31:48;2.80;;;2.50;;
8538;SDS011;4307;53.868;11.680;2023-04-01T03:34:15;6.57;;;3.20;;
8538;SDS011;4307;53.868;11.680;2023-04-01T03:36:41;2.83;;;2.63;;
8538;SDS011;4307;53.868;11.680;2023-04-01T03:39:08;3.07;;;2.77;;
8538;SDS011;4307;53.868;11.680;2023-04-01T03:41:35;3.90;;;2.23;;
8538;SDS011;4307;53.868;11.680;2023-04-01T03:44:02;2.23;;;1.93;;
8538;SDS011;4307;53.868;11.680;2023-04-01T03:46:30;4.03;;;2.23;;
8538;SDS011;4307;53.868;11.680;2023-04-01T03:48:57;2.73;;;2.40;;
8538;SDS011;4307;53.868;11.680;2023-04-01T03:51:24;5.53;;;3.60;;
8538;SDS011;4307;53.868;11.680;2023-04-01T03:53:50;3.50;;;2.80;;
8538;SDS011;4307;53.868;11.680;2023-04-01T03:56:17;2.43;;;2.23;;
8538;SDS011;4307;53.868;11.680;2023-04-01T03:58:44;3.87;;;2.50;;
8538;SDS011;4307;53.868;11.680;2023-04-01T04:01:14;2.83;;;2.30;;
8538;SDS011;4307;53.868;11.680;2023-04-01T04:03:44;4.63;;;2.60;;
8538;SDS011;4307;53.868;11.680;2023-04-01T04:06:11;3.23;;;2.83;;
8538;SDS011;4307;53.868;11.680;2023-04-01T04:08:38;3.80;;;2.70;;
8538;SDS011;4307;53.868;11.680;2023-04-01T04:11:05;1.87;;;1.67;;
8538;SDS011;4307;53.868;11.680;2023-04-01T04:13:32;8.00;;;3.27;;
8538;SDS011;4307;53.868;11.680;2023-04-01T04:15:58;7.30;;;3.37;;
8538;SDS011;4307;53.868;11.680;2023-04-01T04:18:25;4.43;;;2.80;;
8538;SDS011;4307;53.868;11.680;2023-04-01T04:20:53;4.30;;;3.20;;
8538;SDS011;4307;53.868;11.680;2023-04-01T04:23:20;3.83;;;3.47;;
8538;SDS011;4307;53.868;11.680;2023-04-01T04:25:53;7.60;;;3.60;;
8538;SDS011;4307;53.868;11.680;2023-04-01T04:28:21;5.23;;;3.13;;
8538;SDS011;4307;53.868;11.680;2023-04-01T04:30:48;6.20;;;3.20;;
8538;SDS011;4307;53.868;11.680;2023-04-01T04:33:15;3.97;;;3.27;;
8538;SDS011;4307;53.868;11.680;2023-04-01T04:35:42;5.57;;;3.20;;
8538;SDS011;4307;53.868;11.680;2023-04-01T04:38:10;8.17;;;4.20;;
8538;SDS011;4307;53.868;11.680;2023-04-01T04:40:36;4.47;;;3.70;;
8538;SDS011;4307;53.868;11.680;2023-04-01T04:43:03;4.93;;;3.50;;
8538;SDS011;4307;53.868;11.680;2023-04-01T04:45:30;5.97;;;3.70;;
8538;SDS011;4307;53.868;11.680;2023-04-01T04:47:57;5.13;;;3.83;;
8538;SDS011;4307;53.868;11.680;2023-04-01T04:50:24;4.00;;;3.00;;
8538;SDS011;4307;53.868;11.680;2023-04-01T04:52:51;3.33;;;2.40;;
8538;SDS011;4307;53.868;11.680;2023-04-01T04:55:19;3.80;;;3.37;;
8538;SDS011;4307;53.868;11.680;2023-04-01T04:57:46;3.30;;;2.90;;
8538;SDS011;4307;53.868;11.680;2023-04-01T05:00:13;3.17;;;2.20;;
8538;SDS011;4307;53.868;11.680;2023-04-01T05:02:40;2.23;;;2.03;;
8538;SDS011;4307;53.868;11.680;2023-04-01T05:05:07;1.73;;;1.63;;
8538;SDS011;4307;53.868;11.680;2023-04-01T05:07:34;4.40;;;2.80;;
8538;SDS011;4307;53.868;11.680;2023-04-01T05:10:00;2.17;;;1.43;;
8538;SDS011;4307;53.868;11.680;2023-04-01T05:12:28;3.27;;;2.53;;
8538;SDS011;4307;53.868;11.680;2023-04-01T05:14:55;3.20;;;2.80;;
8538;SDS011;4307;53.868;11.680;2023-04-01T05:17:22;4.13;;;3.00;;
8538;SDS011;4307;53.868;11.680;2023-04-01T05:19:49;4.00;;;2.93;;
8538;SDS011;4307;53.868;11.680;2023-04-01T05:22:15;3.60;;;3.03;;
8538;SDS011;4307;53.868;11.680;2023-04-01T05:24:42;3.53;;;2.77;;
8538;SDS011;4307;53.868;11.680;2023-04-01T05:27:09;4.07;;;3.23;;
8538;SDS011;4307;53.868;11.680;2023-04-01T05:29:37;5.00;;;2.60;;
8538;SDS011;4307;53.868;11.680;2023-04-01T05:32:04;4.03;;;2.90;;
8538;SDS011;4307;53.868;11.680;2023-04-01T05:34:30;4.43;;;2.80;;
8538;SDS011;4307;53.868;11.680;2023-04-01T05:36:57;6.27;;;2.70;;
8538;SDS011;4307;53.868;11.680;2023-04-01T05:39:24;2.80;;;2.40;;
8538;SDS011;4307;53.868;11.680;2023-04-01T05:41:51;3.03;;;2.83;;
8538;SDS011;4307;53.868;11.680;2023-04-01T05:44:17;3.43;;;2.73;;
8538;SDS011;4307;53.868;11.680;2023-04-01T05:46:45;2.17;;;1.73;;
8538;SDS011;4307;53.868;11.680;2023-04-01T05:49:12;5.37;;;3.23;;
8538;SDS011;4307;53.868;11.680;2023-04-01T05:51:39;3.03;;;2.73;;
8538;SDS011;4307;53.868;11.680;2023-04-01T05:54:06;4.27;;;2.40;;
8538;SDS011;4307;53.868;11.680;2023-04-01T05:56:32;5.97;;;2.70;;
8538;SDS011;4307;53.868;11.680;2023-04-01T05:58:59;4.97;;;2.80;;
8538;SDS011;4307;53.868;11.680;2023-04-01T06:01:26;2.80;;;2.17;;
8538;SDS011;4307;53.868;11.680;2023-04-01T06:03:54;2.83;;;2.10;;
8538;SDS011;4307;53.868;11.680;2023-04-01T06:06:23;3.27;;;2.57;;
8538;SDS011;4307;53.868;11.680;2023-04-01T06:08:51;2.40;;;2.10;;
8538;SDS011;4307;53.868;11.680;2023-04-01T06:11:20;3.40;;;2.80;;
8538;SDS011;4307;53.868;11.680;2023-04-01T06:13:58;3.73;;;3.30;;
8538;SDS011;4307;53.868;11.680;2023-04-01T06:16:40;2.50;;;2.30;;
8538;SDS011;4307;53.868;11.680;2023-04-01T06:19:20;5.77;;;3.03;;
8538;SDS011;4307;53.868;11.680;2023-04-01T06:22:14;5.80;;;3.80;;
8538;SDS011;4307;53.868;11.680;2023-04-01T06:24:56;2.63;;;2.43;;
8538;SDS011;4307;53.868;11.680;2023-04-01T06:27:54;6.10;;;3.63;;
8538;SDS011;4307;53.868;11.680;2023-04-01T06:30:37;5.43;;;3.70;;
8538;SDS011;4307;53.868;11.680;2023-04-01T06:36:18;4.53;;;3.83;;
8538;SDS011;4307;53.868;11.680;2023-04-01T06:39:04;4.13;;;3.70;;
8538;SDS011;4307;53.868;11.680;2023-04-01T06:42:04;7.07;;;3.50;;
8538;SDS011;4307;53.868;11.680;2023-04-01T06:44:55;4.80;;;3.30;;
8538;SDS011;4307;53.868;11.680;2023-04-01T06:47:36;6.80;;;4.43;;
8538;SDS011;4307;53.868;11.680;2023-04-01T06:50:12;4.17;;;3.07;;
8538;SDS011;4307;53.868;11.680;2023-04-01T06:52:50;3.53;;;3.00;;
8538;SDS011;4307;53.868;11.680;2023-04-01T06:55:24;8.87;;;3.80;;
8538;SDS011;4307;53.868;11.680;2023-04-01T06:57:58;3.77;;;2.63;;
8538;SDS011;4307;53.868;11.680;2023-04-01T07:00:27;4.53;;;2.83;;
8538;SDS011;4307;53.868;11.680;2023-04-01T07:03:00;3.17;;;2.70;;
8538;SDS011;4307;53.868;11.680;2023-04-01T07:05:32;4.53;;;3.07;;
8538;SDS011;4307;53.868;11.680;2023-04-01T07:08:02;3.07;;;2.33;;
8538;SDS011;4307;53.868;11.680;2023-04-01T07:10:33;5.73;;;2.63;;
8538;SDS011;4307;53.868;11.680;2023-04-01T07:13:06;5.27;;;2.30;;
8538;SDS011;4307;53.868;11.680;2023-04-01T07:15:41;3.57;;;2.77;;
8538;SDS011;4307;53.868;11.680;2023-04-01T07:18:10;2.07;;;1.83;;
8538;SDS011;4307;53.868;11.680;2023-04-01T07:20:42;3.03;;;2.20;;
8538;SDS011;4307;53.868;11.680;2023-04-01T07:23:15;3.90;;;1.97;;
8538;SDS011;4307;53.868;11.680;2023-04-01T07:25:47;2.53;;;2.10;;
8538;SDS011;4307;53.868;11.680;2023-04-01T07:28:17;5.50;;;2.50;;
8538;SDS011;4307;53.868;11.680;2023-04-01T07:30:47;1.70;;;1.60;;
8538;SDS011;4307;53.868;11.680;2023-04-01T07:33:21;1.73;;;1.63;;
8538;SDS011;4307;53.868;11.680;2023-04-01T07:35:55;1.73;;;1.50;;
8538;SDS011;4307;53.868;11.680;2023-04-01T07:38:30;4.70;;;2.00;;
8538;SDS011;4307;53.868;11.680;2023-04-01T07:41:07;3.70;;;1.47;;
8538;SDS011;4307;53.868;11.680;2023-04-01T07:43:45;2.57;;;2.10;;
8538;SDS011;4307;53.868;11.680;2023-04-01T07:46:32;1.70;;;1.60;;
8538;SDS011;4307;53.868;11.680;2023-04-01T07:49:14;2.10;;;1.70;;
8538;SDS011;4307;53.868;11.680;2023-04-01T07:51:46;1.87;;;1.67;;
8538;SDS011;4307;53.868;11.680;2023-04-01T07:54:26;1.30;;;1.17;;
8538;SDS011;4307;53.868;11.680;2023-04-01T07:57:01;4.30;;;2.20;;
8538;SDS011;4307;53.868;11.680;2023-04-01T07:59:33;3.33;;;1.60;;
8538;SDS011;4307;53.868;11.680;2023-04-01T08:02:10;1.57;;;1.47;;
8538;SDS011;4307;53.868;11.680;2023-04-01T08:04:49;3.13;;;1.80;;
8538;SDS011;4307;53.868;11.680;2023-04-01T08:07:25;2.77;;;1.63;;
8538;SDS011;4307;53.868;11.680;2023-04-01T08:09:59;3.03;;;1.73;;
8538;SDS011;4307;53.868;11.680;2023-04-01T08:12:37;1.40;;;1.23;;
8538;SDS011;4307;53.868;11.680;2023-04-01T08:15:15;3.53;;;2.20;;
8538;SDS011;4307;53.868;11.680;2023-04-01T08:17:51;2.60;;;2.20;;
8538;SDS011;4307;53.868;11.680;2023-04-01T08:20:28;2.53;;;1.63;;
8538;SDS011;4307;53.868;11.680;2023-04-01T08:23:01;2.30;;;2.00;;
8538;SDS011;4307;53.868;11.680;2023-04-01T08:25:34;2.37;;;2.17;;
8538;SDS011;4307;53.868;11.680;2023-04-01T08:28:09;3.00;;;2.30;;
8538;SDS011;4307;53.868;11.680;2023-04-01T08:30:42;5.87;;;3.20;;
8538;SDS011;4307;53.868;11.680;2023-04-01T08:33:14;1.83;;;1.63;;
8538;SDS011;4307;53.868;11.680;2023-04-01T08:35:46;3.07;;;2.87;;
8538;SDS011;4307;53.868;11.680;2023-04-01T08:38:17;4.93;;;3.23;;
8538;SDS011;4307;53.868;11.680;2023-04-01T08:40:59;5.00;;;3.57;;
8538;SDS011;4307;53.868;11.680;2023-04-01T08:46:33;3.83;;;2.47;;
8538;SDS011;4307;53.868;11.680;2023-04-01T08:49:16;3.77;;;3.27;;
8538;SDS011;4307;53.868;11.680;2023-04-01T08:52:06;5.07;;;3.53;;
8538;SDS011;4307;53.868;11.680;2023-04-01T08:55:02;4.00;;;3.60;;
8538;SDS011;4307;53.868;11.680;2023-04-01T08:57:59;5.63;;;3.37;;
8538;SDS011;4307;53.868;11.680;2023-04-01T09:00:46;3.97;;;3.10;;
8538;SDS011;4307;53.868;11.680;2023-04-01T09:03:24;9.70;;;5.27;;
8538;SDS011;4307;53.868;11.680;2023-04-01T09:06:13;8.43;;;4.87;;
8538;SDS011;4307;53.868;11.680;2023-04-01T09:11:55;5.30;;;4.70;;
8538;SDS011;4307;53.868;11.680;2023-04-01T09:14:45;7.13;;;4.37;;
8538;SDS011;4307;53.868;11.680;2023-04-01T09:17:39;5.40;;;3.67;;
8538;SDS011;4307;53.868;11.680;2023-04-01T09:20:30;11.03;;;6.43;;
8538;SDS011;4307;53.868;11.680;2023-04-01T09:23:20;9.47;;;5.70;;
8538;SDS011;4307;53.868;11.680;2023-04-01T09:25:59;9.60;;;4.37;;
8538;SDS011;4307;53.868;11.680;2023-04-01T09:28:41;9.80;;;5.60;;
8538;SDS011;4307;53.868;11.680;2023-04-01T09:31:16;3.07;;;2.37;;
8538;SDS011;4307;53.868;11.680;2023-04-01T09:34:12;7.80;;;4.70;;
8538;SDS011;4307;53.868;11.680;2023-04-01T09:36:51;8.60;;;4.53;;
8538;SDS011;4307;53.868;11.680;2023-04-01T09:39:36;8.17;;;6.37;;
8538;SDS011;4307;53.868;11.680;2023-04-01T09:42:15;11.67;;;5.83;;
8538;SDS011;4307;53.868;11.680;2023-04-01T09:44:57;8.83;;;5.23;;
8538;SDS011;4307;53.868;11.680;2023-04-01T09:47:31;9.37;;;5.27;;
8538;SDS011;4307;53.868;11.680;2023-04-01T09:50:14;6.43;;;4.07;;
8538;SDS011;4307;53.868;11.680;2023-04-01T09:53:02;6.30;;;4.60;;
8538;SDS011;4307;53.868;11.680;2023-04-01T09:55:52;7.63;;;4.40;;
8538;SDS011;4307;53.868;11.680;2023-04-01T09:58:51;7.73;;;5.43;;
8538;SDS011;4307;53.868;11.680;2023-04-01T10:01:52;11.30;;;5.30;;
8538;SDS011;4307;53.868;11.680;2023-04-01T10:11:15;6.67;;;4.83;;
8538;SDS011;4307;53.868;11.680;2023-04-01T10:14:06;5.03;;;4.17;;
8538;SDS011;4307;53.868;11.680;2023-04-01T10:20:01;10.50;;;4.73;;
8538;SDS011;4307;53.868;11.680;2023-04-01T10:22:50;6.70;;;5.00;;
8538;SDS011;4307;53.868;11.680;2023-04-01T10:25:37;8.13;;;4.77;;
8538;SDS011;4307;53.868;11.680;2023-04-01T10:31:35;7.07;;;4.87;;
8538;SDS011;4307;53.868;11.680;2023-04-01T10:34:24;8.53;;;3.97;;
8538;SDS011;4307;53.868;11.680;2023-04-01T10:37:16;17.80;;;5.10;;
8538;SDS011;4307;53.868;11.680;2023-04-01T10:49:05;14.13;;;5.17;;
8538;SDS011;4307;53.868;11.680;2023-04-01T10:52:21;7.30;;;4.60;;
8538;SDS011;4307;53.868;11.680;2023-04-01T10:55:12;6.80;;;4.37;;
8538;SDS011;4307;53.868;11.680;2023-04-01T10:58:03;9.73;;;5.00;;
8538;SDS011;4307;53.868;11.680;2023-04-01T11:00:53;9.83;;;3.97;;
8538;SDS011;4307;53.868;11.680;2023-04-01T11:12:51;6.77;;;4.43;;
8538;SDS011;4307;53.868;11.680;2023-04-01T11:18:51;4.23;;;3.27;;
8538;SDS011;4307;53.868;11.680;2023-04-01T11:24:46;8.03;;;4.33;;
8538;SDS011;4307;53.868;11.680;2023-04-01T11:27:49;7.77;;;4.90;;
8538;SDS011;4307;53.868;11.680;2023-04-01T11:30:33;11.37;;;6.20;;
8538;SDS011;4307;53.868;11.680;2023-04-01T11:33:11;9.93;;;5.00;;
8538;SDS011;4307;53.868;11.680;2023-04-01T11:36:00;9.40;;;5.43;;
8538;SDS011;4307;53.868;11.680;2023-04-01T11:38:58;9.87;;;4.87;;
8538;SDS011;4307;53.868;11.680;2023-04-01T11:41:36;3.60;;;3.07;;
8538;SDS011;4307;53.868;11.680;2023-04-01T11:44:14;7.13;;;4.27;;
8538;SDS011;4307;53.868;11.680;2023-04-01T11:46:47;10.17;;;4.80;;
8538;SDS011;4307;53.868;11.680;2023-04-01T11:49:29;10.40;;;5.30;;
8538;SDS011;4307;53.868;11.680;2023-04-01T11:52:08;10.67;;;5.90;;
8538;SDS011;4307;53.868;11.680;2023-04-01T11:54:48;8.40;;;4.50;;
8538;SDS011;4307;53.868;11.680;2023-04-01T11:57:34;9.03;;;5.20;;
8538;SDS011;4307;53.868;11.680;2023-04-01T12:00:20;10.50;;;5.23;;
8538;SDS011;4307;53.868;11.680;2023-04-01T12:03:01;12.10;;;5.77;;
8538;SDS011;4307;53.868;11.680;2023-04-01T12:05:44;8.43;;;4.33;;
8538;SDS011;4307;53.868;11.680;2023-04-01T12:08:24;6.77;;;4.43;;
8538;SDS011;4307;53.868;11.680;2023-04-01T12:11:00;4.23;;;3.43;;
8538;SDS011;4307;53.868;11.680;2023-04-01T12:13:33;8.87;;;4.70;;
8538;SDS011;4307;53.868;11.680;2023-04-01T12:16:13;5.20;;;3.83;;
8538;SDS011;4307;53.868;11.680;2023-04-01T12:18:52;4.73;;;3.27;;
8538;SDS011;4307;53.868;11.680;2023-04-01T12:21:24;10.13;;;4.53;;
8538;SDS011;4307;53.868;11.680;2023-04-01T12:24:03;8.03;;;3.37;;
8538;SDS011;4307;53.868;11.680;2023-04-01T12:27:06;5.17;;;4.00;;
8538;SDS011;4307;53.868;11.680;2023-04-01T12:30:06;4.27;;;2.83;;
8538;SDS011;4307;53.868;11.680;2023-04-01T12:32:59;5.60;;;3.37;;
8538;SDS011;4307;53.868;11.680;2023-04-01T12:35:43;7.73;;;4.40;;
8538;SDS011;4307;53.868;11.680;2023-04-01T12:38:21;9.90;;;3.90;;
8538;SDS011;4307;53.868;11.680;2023-04-01T12:41:03;8.97;;;4.97;;
8538;SDS011;4307;53.868;11.680;2023-04-01T12:46:34;7.73;;;3.63;;
8538;SDS011;4307;53.868;11.680;2023-04-01T12:49:12;4.00;;;3.47;;
8538;SDS011;4307;53.868;11.680;2023-04-01T12:52:03;6.13;;;3.10;;
8538;SDS011;4307;53.868;11.680;2023-04-01T12:54:45;6.53;;;3.83;;
8538;SDS011;4307;53.868;11.680;2023-04-01T12:57:47;8.67;;;3.77;;
8538;SDS011;4307;53.868;11.680;2023-04-01T13:00:26;10.73;;;5.43;;
8538;SDS011;4307;53.868;11.680;2023-04-01T13:06:16;8.53;;;4.70;;
8538;SDS011;4307;53.868;11.680;2023-04-01T13:09:03;4.67;;;3.67;;
8538;SDS011;4307;53.868;11.680;2023-04-01T13:11:45;7.50;;;3.93;;
8538;SDS011;4307;53.868;11.680;2023-04-01T13:17:13;11.23;;;4.43;;
8538;SDS011;4307;53.868;11.680;2023-04-01T13:19:44;6.90;;;4.70;;
8538;SDS011;4307;53.868;11.680;2023-04-01T13:22:19;7.73;;;4.80;;
8538;SDS011;4307;53.868;11.680;2023-04-01T13:24:54;8.90;;;4.27;;
8538;SDS011;4307;53.868;11.680;2023-04-01T13:27:30;6.63;;;4.50;;
8538;SDS011;4307;53.868;11.680;2023-04-01T13:30:07;5.43;;;3.23;;
8538;SDS011;4307;53.868;11.680;2023-04-01T13:32:47;8.40;;;3.60;;
8538;SDS011;4307;53.868;11.680;2023-04-01T13:35:25;6.90;;;3.57;;
8538;SDS011;4307;53.868;11.680;2023-04-01T13:38:03;7.07;;;3.43;;
8538;SDS011;4307;53.868;11.680;2023-04-01T13:40:45;3.47;;;2.53;;
8538;SDS011;4307;53.868;11.680;2023-04-01T13:43:21;4.03;;;2.67;;
8538;SDS011;4307;53.868;11.680;2023-04-01T13:46:02;9.03;;;3.03;;
8538;SDS011;4307;53.868;11.680;2023-04-01T13:48:50;8.80;;;3.67;;
8538;SDS011;4307;53.868;11.680;2023-04-01T13:51:35;6.20;;;2.87;;
8538;SDS011;4307;53.868;11.680;2023-04-01T13:54:30;4.17;;;2.47;;
8538;SDS011;4307;53.868;11.680;2023-04-01T13:57:26;5.13;;;4.00;;
8538;SDS011;4307;53.868;11.680;2023-04-01T14:00:10;6.80;;;3.47;;
8538;SDS011;4307;53.868;11.680;2023-04-01T14:02:55;6.73;;;3.60;;
8538;SDS011;4307;53.868;11.680;2023-04-01T14:05:39;6.40;;;3.40;;
8538;SDS011;4307;53.868;11.680;2023-04-01T14:08:19;7.17;;;3.97;;
8538;SDS011;4307;53.868;11.680;2023-04-01T14:10:58;4.47;;;3.07;;
8538;SDS011;4307;53.868;11.680;2023-04-01T14:13:37;2.97;;;2.40;;
8538;SDS011;4307;53.868;11.680;2023-04-01T14:16:14;3.93;;;2.80;;
8538;SDS011;4307;53.868;11.680;2023-04-01T14:19:12;5.40;;;3.97;;
8538;SDS011;4307;53.868;11.680;2023-04-01T14:21:56;6.20;;;3.40;;
8538;SDS011;4307;53.868;11.680;2023-04-01T14:24:42;5.43;;;3.17;;
8538;SDS011;4307;53.868;11.680;2023-04-01T14:27:28;6.20;;;2.90;;
8538;SDS011;4307;53.868;11.680;2023-04-01T14:30:09;9.60;;;3.40;;
8538;SDS011;4307;53.868;11.680;2023-04-01T14:32:57;2.40;;;1.80;;
8538;SDS011;4307;53.868;11.680;2023-04-01T14:35:35;5.73;;;2.57;;
8538;SDS011;4307;53.868;11.680;2023-04-01T14:38:08;9.30;;;3.37;;
8538;SDS011;4307;53.868;11.680;2023-04-01T14:40:55;5.60;;;2.70;;
8538;SDS011;4307;53.868;11.680;2023-04-01T14:43:32;6.73;;;3.23;;
8538;SDS011;4307;53.868;11.680;2023-04-01T14:46:33;5.60;;;3.40;;
8538;SDS011;4307;53.868;11.680;2023-04-01T14:49:17;9.57;;;2.87;;
8538;SDS011;4307;53.868;11.680;2023-04-01T14:51:48;3.37;;;2.37;;
8538;SDS011;4307;53.868;11.680;2023-04-01T14:54:17;4.10;;;2.73;;
8538;SDS011;4307;53.868;11.680;2023-04-01T14:56:49;7.20;;;3.50;;
8538;SDS011;4307;53.868;11.680;2023-04-01T14:59:27;5.57;;;3.30;;
8538;SDS011;4307;53.868;11.680;2023-04-01T15:01:56;4.97;;;3.10;;
8538;SDS011;4307;53.868;11.680;2023-04-01T15:04:34;4.20;;;2.70;;
8538;SDS011;4307;53.868;11.680;2023-04-01T15:07:29;4.83;;;2.43;;
8538;SDS011;4307;53.868;11.680;2023-04-01T15:10:29;3.33;;;2.87;;
8538;SDS011;4307;53.868;11.680;2023-04-01T15:13:13;3.17;;;2.50;;
8538;SDS011;4307;53.868;11.680;2023-04-01T15:15:49;5.07;;;2.53;;
8538;SDS011;4307;53.868;11.680;2023-04-01T15:18:31;3.57;;;2.27;;
8538;SDS011;4307;53.868;11.680;2023-04-01T15:21:10;3.97;;;2.73;;
8538;SDS011;4307;53.868;11.680;2023-04-01T15:24:01;5.97;;;3.10;;
8538;SDS011;4307;53.868;11.680;2023-04-01T15:26:47;4.23;;;1.90;;
8538;SDS011;4307;53.868;11.680;2023-04-01T15:29:39;2.53;;;2.33;;
8538;SDS011;4307;53.868;11.680;2023-04-01T15:32:19;4.93;;;2.43;;
8538;SDS011;4307;53.868;11.680;2023-04-01T15:34:53;2.63;;;1.77;;
8538;SDS011;4307;53.868;11.680;2023-04-01T15:37:28;7.03;;;3.33;;
8538;SDS011;4307;53.868;11.680;2023-04-01T15:40:07;2.53;;;2.33;;
8538;SDS011;4307;53.868;11.680;2023-04-01T15:42:48;3.17;;;2.30;;
8538;SDS011;4307;53.868;11.680;2023-04-01T15:45:27;3.80;;;2.40;;
8538;SDS011;4307;53.868;11.680;2023-04-01T15:48:05;4.73;;;2.73;;
8538;SDS011;4307;53.868;11.680;2023-04-01T15:50:51;3.07;;;2.23;;
8538;SDS011;4307;53.868;11.680;2023-04-01T15:53:34;3.17;;;2.47;;
8538;SDS011;4307;53.868;11.680;2023-04-01T15:56:10;2.97;;;2.60;;
8538;SDS011;4307;53.868;11.680;2023-04-01T15:58:48;3.47;;;2.70;;
8538;SDS011;4307;53.868;11.680;2023-04-01T16:01:27;3.73;;;2.63;;
8538;SDS011;4307;53.868;11.680;2023-04-01T16:04:06;7.93;;;2.90;;
8538;SDS011;4307;53.868;11.680;2023-04-01T16:06:51;3.37;;;3.07;;
8538;SDS011;4307;53.868;11.680;2023-04-01T16:09:28;4.23;;;2.57;;
8538;SDS011;4307;53.868;11.680;2023-04-01T16:12:12;2.63;;;1.60;;
8538;SDS011;4307;53.868;11.680;2023-04-01T16:14:44;3.10;;;2.43;;
8538;SDS011;4307;53.868;11.680;2023-04-01T16:17:28;3.90;;;3.50;;
8538;SDS011;4307;53.868;11.680;2023-04-01T16:20:15;9.07;;;3.60;;
8538;SDS011;4307;53.868;11.680;2023-04-01T16:22:46;8.07;;;4.07;;
8538;SDS011;4307;53.868;11.680;2023-04-01T16:25:32;11.40;;;3.30;;
8538;SDS011;4307;53.868;11.680;2023-04-01T16:28:13;6.00;;;3.70;;
8538;SDS011;4307;53.868;11.680;2023-04-01T16:30:47;3.77;;;2.67;;
8538;SDS011;4307;53.868;11.680;2023-04-01T16:33:20;4.80;;;2.83;;
8538;SDS011;4307;53.868;11.680;2023-04-01T16:35:54;3.20;;;2.40;;
8538;SDS011;4307;53.868;11.680;2023-04-01T16:38:24;6.57;;;2.40;;
8538;SDS011;4307;53.868;11.680;2023-04-01T16:41:05;5.37;;;2.33;;
8538;SDS011;4307;53.868;11.680;2023-04-01T16:43:38;2.43;;;1.77;;
8538;SDS011;4307;53.868;11.680;2023-04-01T16:46:17;7.83;;;2.67;;
8538;SDS011;4307;53.868;11.680;2023-04-01T16:48:56;3.03;;;2.27;;
8538;SDS011;4307;53.868;11.680;2023-04-01T16:51:27;4.93;;;3.07;;
8538;SDS011;4307;53.868;11.680;2023-04-01T16:54:04;6.83;;;2.93;;